sensor_id;sensor_type;location;lat;lon;timestamp;P1;durP1;ratioP1;P2;durP2;ratioP2
11006;SDS011;8186;57.652;11.968;2023-07-13T00:00:46;9.03;;;2.47;;
11006;SDS011;8186;57.652;11.968;2023-07-13T00:03:13;7.03;;;2.10;;
11006;SDS011;8186;57.652;11.968;2023-07-13T00:05:41;7.97;;;2.40;;
11006;SDS011;8186;57.652;11.968;2023-07-13T00:08:08;8.17;;;2.17;;
11006;SDS011;8186;57.652;11.968;2023-07-13T00:10:38;8.30;;;2.57;;
11006;SDS011;8186;57.652;11.968;2023-07-13T00:13:07;12.40;;;2.30;;
11006;SDS011;8186;57.652;11.968;2023-07-13T00:15:34;10.00;;;2.67;;
11006;SDS011;8186;57.652;11.968;2023-07-13T00:18:01;8.33;;;2.50;;
11006;SDS011;8186;57.652;11.968;2023-07-13T00:20:28;6.93;;;2.03;;
11006;SDS011;8186;57.652;11.968;2023-07-13T00:22:56;10.17;;;3.00;;
11006;SDS011;8186;57.652;11.968;2023-07-13T00:25:23;4.93;;;2.23;;
11006;SDS011;8186;57.652;11.968;2023-07-13T00:27:53;7.00;;;2.20;;
11006;SDS011;8186;57.652;11.968;2023-07-13T00:30:20;5.83;;;2.30;;
11006;SDS011;8186;57.652;11.968;2023-07-13T00:32:47;11.93;;;2.83;;
11006;SDS011;8186;57.652;11.968;2023-07-13T00:35:14;10.63;;;2.63;;
11006;SDS011;8186;57.652;11.968;2023-07-13T00:37:41;7.40;;;2.97;;
11006;SDS011;8186;57.652;11.968;2023-07-13T00:40:10;8.37;;;2.47;;
11006;SDS011;8186;57.652;11.968;2023-07-13T00:42:38;7.80;;;2.63;;
11006;SDS011;8186;57.652;11.968;2023-07-13T00:46:02;12.30;;;2.40;;
11006;SDS011;8186;57.652;11.968;2023-07-13T00:48:13;8.23;;;2.60;;
11006;SDS011;8186;57.652;11.968;2023-07-13T00:50:42;8.37;;;3.10;;
11006;SDS011;8186;57.652;11.968;2023-07-13T00:53:10;11.37;;;2.50;;
11006;SDS011;8186;57.652;11.968;2023-07-13T00:55:38;9.63;;;2.93;;
11006;SDS011;8186;57.652;11.968;2023-07-13T00:58:06;13.00;;;3.00;;
11006;SDS011;8186;57.652;11.968;2023-07-13T01:00:33;9.63;;;2.73;;
11006;SDS011;8186;57.652;11.968;2023-07-13T01:03:01;12.60;;;3.13;;
11006;SDS011;8186;57.652;11.968;2023-07-13T01:05:29;8.67;;;2.67;;
11006;SDS011;8186;57.652;11.968;2023-07-13T01:07:58;10.30;;;2.90;;
11006;SDS011;8186;57.652;11.968;2023-07-13T01:10:25;7.57;;;2.77;;
11006;SDS011;8186;57.652;11.968;2023-07-13T01:12:54;9.97;;;3.67;;
11006;SDS011;8186;57.652;11.968;2023-07-13T01:15:34;10.40;;;3.57;;
11006;SDS011;8186;57.652;11.968;2023-07-13T01:18:03;9.53;;;3.30;;
11006;SDS011;8186;57.652;11.968;2023-07-13T01:20:30;9.40;;;3.20;;
11006;SDS011;8186;57.652;11.968;2023-07-13T01:23:02;13.37;;;3.43;;
11006;SDS011;8186;57.652;11.968;2023-07-13T01:25:31;7.47;;;3.00;;
11006;SDS011;8186;57.652;11.968;2023-07-13T01:27:58;10.50;;;3.30;;
11006;SDS011;8186;57.652;11.968;2023-07-13T01:30:25;8.63;;;3.20;;
11006;SDS011;8186;57.652;11.968;2023-07-13T01:32:52;7.73;;;3.20;;
11006;SDS011;8186;57.652;11.968;2023-07-13T01:35:19;14.43;;;3.57;;
11006;SDS011;8186;57.652;11.968;2023-07-13T01:37:46;12.37;;;3.10;;
11006;SDS011;8186;57.652;11.968;2023-07-13T01:40:14;10.30;;;2.63;;
11006;SDS011;8186;57.652;11.968;2023-07-13T01:42:42;9.30;;;2.93;;
11006;SDS011;8186;57.652;11.968;2023-07-13T01:45:09;7.23;;;2.70;;
11006;SDS011;8186;57.652;11.968;2023-07-13T01:47:36;6.27;;;2.80;;
11006;SDS011;8186;57.652;11.968;2023-07-13T01:50:03;9.30;;;2.87;;
11006;SDS011;8186;57.652;11.968;2023-07-13T01:52:31;8.00;;;2.80;;
11006;SDS011;8186;57.652;11.968;2023-07-13T01:54:58;9.50;;;2.87;;
11006;SDS011;8186;57.652;11.968;2023-07-13T01:57:26;7.67;;;3.00;;
11006;SDS011;8186;57.652;11.968;2023-07-13T01:59:53;9.03;;;2.93;;
11006;SDS011;8186;57.652;11.968;2023-07-13T02:02:20;10.33;;;2.73;;
11006;SDS011;8186;57.652;11.968;2023-07-13T02:04:46;9.23;;;2.73;;
11006;SDS011;8186;57.652;11.968;2023-07-13T02:07:13;8.87;;;2.73;;
11006;SDS011;8186;57.652;11.968;2023-07-13T02:09:41;15.20;;;2.97;;
11006;SDS011;8186;57.652;11.968;2023-07-13T02:12:08;13.03;;;3.57;;
11006;SDS011;8186;57.652;11.968;2023-07-13T02:14:37;10.23;;;2.97;;
11006;SDS011;8186;57.652;11.968;2023-07-13T02:17:04;10.70;;;2.80;;
11006;SDS011;8186;57.652;11.968;2023-07-13T02:19:31;9.80;;;2.73;;
11006;SDS011;8186;57.652;11.968;2023-07-13T02:21:58;13.03;;;2.87;;
11006;SDS011;8186;57.652;11.968;2023-07-13T02:24:24;9.47;;;2.70;;
11006;SDS011;8186;57.652;11.968;2023-07-13T02:26:52;9.43;;;3.17;;
11006;SDS011;8186;57.652;11.968;2023-07-13T02:29:19;9.90;;;3.00;;
11006;SDS011;8186;57.652;11.968;2023-07-13T02:31:47;5.83;;;2.70;;
11006;SDS011;8186;57.652;11.968;2023-07-13T02:34:14;6.00;;;2.53;;
11006;SDS011;8186;57.652;11.968;2023-07-13T02:36:41;9.00;;;2.60;;
11006;SDS011;8186;57.652;11.968;2023-07-13T02:39:08;10.87;;;3.20;;
11006;SDS011;8186;57.652;11.968;2023-07-13T02:41:35;7.93;;;3.10;;
11006;SDS011;8186;57.652;11.968;2023-07-13T02:44:02;12.07;;;3.63;;
11006;SDS011;8186;57.652;11.968;2023-07-13T02:46:30;8.37;;;2.80;;
11006;SDS011;8186;57.652;11.968;2023-07-13T02:48:58;12.43;;;4.03;;
11006;SDS011;8186;57.652;11.968;2023-07-13T02:51:25;11.00;;;2.80;;
11006;SDS011;8186;57.652;11.968;2023-07-13T02:53:52;8.10;;;2.77;;
11006;SDS011;8186;57.652;11.968;2023-07-13T02:56:21;8.50;;;2.70;;
11006;SDS011;8186;57.652;11.968;2023-07-13T02:58:50;13.03;;;3.20;;
11006;SDS011;8186;57.652;11.968;2023-07-13T03:01:17;10.03;;;3.00;;
11006;SDS011;8186;57.652;11.968;2023-07-13T03:03:46;13.50;;;3.63;;
11006;SDS011;8186;57.652;11.968;2023-07-13T03:06:14;9.77;;;3.23;;
11006;SDS011;8186;57.652;11.968;2023-07-13T03:08:42;11.90;;;3.37;;
11006;SDS011;8186;57.652;11.968;2023-07-13T03:11:10;9.43;;;2.83;;
11006;SDS011;8186;57.652;11.968;2023-07-13T03:13:39;10.50;;;3.43;;
11006;SDS011;8186;57.652;11.968;2023-07-13T03:16:07;11.10;;;3.30;;
11006;SDS011;8186;57.652;11.968;2023-07-13T03:18:34;8.37;;;3.70;;
11006;SDS011;8186;57.652;11.968;2023-07-13T03:21:02;6.87;;;3.43;;
11006;SDS011;8186;57.652;11.968;2023-07-13T03:23:30;9.80;;;3.30;;
11006;SDS011;8186;57.652;11.968;2023-07-13T03:26:00;6.97;;;2.97;;
11006;SDS011;8186;57.652;11.968;2023-07-13T03:28:28;10.90;;;3.33;;
11006;SDS011;8186;57.652;11.968;2023-07-13T03:30:59;9.47;;;3.80;;
11006;SDS011;8186;57.652;11.968;2023-07-13T03:33:26;8.03;;;3.10;;
11006;SDS011;8186;57.652;11.968;2023-07-13T03:35:53;9.17;;;3.37;;
11006;SDS011;8186;57.652;11.968;2023-07-13T03:38:20;16.17;;;3.60;;
11006;SDS011;8186;57.652;11.968;2023-07-13T03:40:48;10.57;;;3.17;;
11006;SDS011;8186;57.652;11.968;2023-07-13T03:43:15;8.60;;;3.13;;
11006;SDS011;8186;57.652;11.968;2023-07-13T03:45:42;7.07;;;2.67;;
11006;SDS011;8186;57.652;11.968;2023-07-13T03:48:09;10.37;;;3.33;;
11006;SDS011;8186;57.652;11.968;2023-07-13T03:50:36;8.50;;;3.13;;
11006;SDS011;8186;57.652;11.968;2023-07-13T03:53:03;17.20;;;3.07;;
11006;SDS011;8186;57.652;11.968;2023-07-13T03:55:30;11.37;;;3.43;;
11006;SDS011;8186;57.652;11.968;2023-07-13T03:58:00;14.93;;;3.23;;
11006;SDS011;8186;57.652;11.968;2023-07-13T04:00:49;8.37;;;2.83;;
11006;SDS011;8186;57.652;11.968;2023-07-13T04:03:16;9.70;;;2.80;;
11006;SDS011;8186;57.652;11.968;2023-07-13T04:05:43;13.47;;;2.80;;
11006;SDS011;8186;57.652;11.968;2023-07-13T04:08:11;7.97;;;2.87;;
11006;SDS011;8186;57.652;11.968;2023-07-13T04:10:41;5.83;;;2.40;;
11006;SDS011;8186;57.652;11.968;2023-07-13T04:13:08;10.97;;;2.87;;
11006;SDS011;8186;57.652;11.968;2023-07-13T04:15:35;8.13;;;2.57;;
11006;SDS011;8186;57.652;11.968;2023-07-13T04:18:03;10.60;;;2.73;;
11006;SDS011;8186;57.652;11.968;2023-07-13T04:20:30;7.33;;;3.00;;
11006;SDS011;8186;57.652;11.968;2023-07-13T04:22:57;7.93;;;2.83;;
11006;SDS011;8186;57.652;11.968;2023-07-13T04:25:24;8.57;;;3.23;;
11006;SDS011;8186;57.652;11.968;2023-07-13T04:27:52;13.80;;;2.83;;
11006;SDS011;8186;57.652;11.968;2023-07-13T04:30:19;11.67;;;3.37;;
11006;SDS011;8186;57.652;11.968;2023-07-13T04:32:46;12.00;;;3.20;;
11006;SDS011;8186;57.652;11.968;2023-07-13T04:35:15;7.50;;;2.90;;
11006;SDS011;8186;57.652;11.968;2023-07-13T04:37:42;8.63;;;2.60;;
11006;SDS011;8186;57.652;11.968;2023-07-13T04:40:10;8.90;;;2.67;;
11006;SDS011;8186;57.652;11.968;2023-07-13T04:42:37;7.37;;;3.13;;
11006;SDS011;8186;57.652;11.968;2023-07-13T04:45:05;9.83;;;2.80;;
11006;SDS011;8186;57.652;11.968;2023-07-13T04:47:32;15.77;;;3.57;;
11006;SDS011;8186;57.652;11.968;2023-07-13T04:49:59;8.20;;;2.90;;
11006;SDS011;8186;57.652;11.968;2023-07-13T04:52:28;8.30;;;2.67;;
11006;SDS011;8186;57.652;11.968;2023-07-13T04:54:55;11.07;;;2.40;;
11006;SDS011;8186;57.652;11.968;2023-07-13T04:57:21;8.90;;;3.43;;
11006;SDS011;8186;57.652;11.968;2023-07-13T04:59:48;9.07;;;2.87;;
11006;SDS011;8186;57.652;11.968;2023-07-13T05:02:16;6.30;;;2.27;;
11006;SDS011;8186;57.652;11.968;2023-07-13T05:04:44;10.20;;;3.10;;
11006;SDS011;8186;57.652;11.968;2023-07-13T05:07:13;7.50;;;2.90;;
11006;SDS011;8186;57.652;11.968;2023-07-13T05:09:41;8.37;;;3.23;;
11006;SDS011;8186;57.652;11.968;2023-07-13T05:12:08;7.37;;;2.60;;
11006;SDS011;8186;57.652;11.968;2023-07-13T05:14:36;7.57;;;2.67;;
11006;SDS011;8186;57.652;11.968;2023-07-13T05:17:03;8.30;;;2.83;;
11006;SDS011;8186;57.652;11.968;2023-07-13T05:19:30;6.13;;;2.60;;
11006;SDS011;8186;57.652;11.968;2023-07-13T05:21:57;8.80;;;2.80;;
11006;SDS011;8186;57.652;11.968;2023-07-13T05:24:24;11.40;;;3.00;;
11006;SDS011;8186;57.652;11.968;2023-07-13T05:26:52;10.90;;;3.30;;
11006;SDS011;8186;57.652;11.968;2023-07-13T05:29:19;9.17;;;2.93;;
11006;SDS011;8186;57.652;11.968;2023-07-13T05:31:46;11.30;;;2.70;;
11006;SDS011;8186;57.652;11.968;2023-07-13T05:34:13;12.73;;;3.20;;
11006;SDS011;8186;57.652;11.968;2023-07-13T05:36:40;10.77;;;2.90;;
11006;SDS011;8186;57.652;11.968;2023-07-13T05:39:07;9.63;;;2.60;;
11006;SDS011;8186;57.652;11.968;2023-07-13T05:41:35;10.47;;;2.60;;
11006;SDS011;8186;57.652;11.968;2023-07-13T05:44:03;12.53;;;3.20;;
11006;SDS011;8186;57.652;11.968;2023-07-13T05:46:31;10.13;;;3.07;;
11006;SDS011;8186;57.652;11.968;2023-07-13T05:48:58;8.53;;;2.47;;
11006;SDS011;8186;57.652;11.968;2023-07-13T05:51:24;13.67;;;3.10;;
11006;SDS011;8186;57.652;11.968;2023-07-13T05:53:51;8.50;;;3.07;;
11006;SDS011;8186;57.652;11.968;2023-07-13T05:56:19;9.07;;;2.30;;
11006;SDS011;8186;57.652;11.968;2023-07-13T05:58:47;6.70;;;3.27;;
11006;SDS011;8186;57.652;11.968;2023-07-13T06:01:16;7.70;;;2.50;;
11006;SDS011;8186;57.652;11.968;2023-07-13T06:03:44;12.47;;;3.27;;
11006;SDS011;8186;57.652;11.968;2023-07-13T06:06:10;9.87;;;3.00;;
11006;SDS011;8186;57.652;11.968;2023-07-13T06:08:37;8.70;;;3.40;;
11006;SDS011;8186;57.652;11.968;2023-07-13T06:11:05;7.70;;;3.10;;
11006;SDS011;8186;57.652;11.968;2023-07-13T06:13:33;9.70;;;3.37;;
11006;SDS011;8186;57.652;11.968;2023-07-13T06:16:00;10.80;;;3.50;;
11006;SDS011;8186;57.652;11.968;2023-07-13T06:18:30;10.37;;;3.20;;
11006;SDS011;8186;57.652;11.968;2023-07-13T06:20:58;6.97;;;2.50;;
11006;SDS011;8186;57.652;11.968;2023-07-13T06:23:25;5.63;;;2.87;;
11006;SDS011;8186;57.652;11.968;2023-07-13T06:25:52;10.70;;;2.47;;
11006;SDS011;8186;57.652;11.968;2023-07-13T06:28:19;9.77;;;2.90;;
11006;SDS011;8186;57.652;11.968;2023-07-13T06:30:46;9.73;;;2.90;;
11006;SDS011;8186;57.652;11.968;2023-07-13T06:33:12;13.83;;;3.73;;
11006;SDS011;8186;57.652;11.968;2023-07-13T06:35:41;6.50;;;3.43;;
11006;SDS011;8186;57.652;11.968;2023-07-13T06:38:08;9.87;;;2.97;;
11006;SDS011;8186;57.652;11.968;2023-07-13T06:40:35;10.17;;;3.07;;
11006;SDS011;8186;57.652;11.968;2023-07-13T06:43:02;11.50;;;3.47;;
11006;SDS011;8186;57.652;11.968;2023-07-13T06:45:29;9.63;;;3.20;;
11006;SDS011;8186;57.652;11.968;2023-07-13T06:47:56;9.43;;;3.27;;
11006;SDS011;8186;57.652;11.968;2023-07-13T06:50:23;10.00;;;3.60;;
11006;SDS011;8186;57.652;11.968;2023-07-13T06:52:51;15.13;;;4.33;;
11006;SDS011;8186;57.652;11.968;2023-07-13T06:55:18;12.60;;;3.70;;
11006;SDS011;8186;57.652;11.968;2023-07-13T06:57:45;10.87;;;3.40;;
11006;SDS011;8186;57.652;11.968;2023-07-13T07:00:12;12.27;;;3.50;;
11006;SDS011;8186;57.652;11.968;2023-07-13T07:02:40;8.00;;;2.97;;
11006;SDS011;8186;57.652;11.968;2023-07-13T07:05:07;9.80;;;2.97;;
11006;SDS011;8186;57.652;11.968;2023-07-13T07:07:33;10.77;;;3.27;;
11006;SDS011;8186;57.652;11.968;2023-07-13T07:10:02;9.43;;;3.20;;
11006;SDS011;8186;57.652;11.968;2023-07-13T07:12:29;8.73;;;3.57;;
11006;SDS011;8186;57.652;11.968;2023-07-13T07:14:56;10.93;;;3.07;;
11006;SDS011;8186;57.652;11.968;2023-07-13T07:17:23;12.57;;;3.27;;
11006;SDS011;8186;57.652;11.968;2023-07-13T07:19:51;9.37;;;2.77;;
11006;SDS011;8186;57.652;11.968;2023-07-13T07:22:19;11.17;;;2.90;;
11006;SDS011;8186;57.652;11.968;2023-07-13T07:24:46;6.53;;;3.10;;
11006;SDS011;8186;57.652;11.968;2023-07-13T07:27:14;7.73;;;2.50;;
11006;SDS011;8186;57.652;11.968;2023-07-13T07:29:41;7.17;;;3.30;;
11006;SDS011;8186;57.652;11.968;2023-07-13T07:32:09;7.53;;;2.70;;
11006;SDS011;8186;57.652;11.968;2023-07-13T07:34:35;8.23;;;2.57;;
11006;SDS011;8186;57.652;11.968;2023-07-13T07:37:03;6.73;;;2.20;;
11006;SDS011;8186;57.652;11.968;2023-07-13T07:39:30;7.93;;;2.70;;
11006;SDS011;8186;57.652;11.968;2023-07-13T07:41:57;9.00;;;2.70;;
11006;SDS011;8186;57.652;11.968;2023-07-13T07:44:26;7.43;;;2.40;;
11006;SDS011;8186;57.652;11.968;2023-07-13T07:46:53;12.10;;;2.67;;
11006;SDS011;8186;57.652;11.968;2023-07-13T07:49:20;6.40;;;2.03;;
11006;SDS011;8186;57.652;11.968;2023-07-13T07:51:47;4.70;;;2.23;;
11006;SDS011;8186;57.652;11.968;2023-07-13T07:54:14;5.73;;;2.30;;
11006;SDS011;8186;57.652;11.968;2023-07-13T07:56:41;7.13;;;2.50;;
11006;SDS011;8186;57.652;11.968;2023-07-13T07:59:08;4.37;;;2.07;;
11006;SDS011;8186;57.652;11.968;2023-07-13T08:01:36;4.33;;;2.27;;
11006;SDS011;8186;57.652;11.968;2023-07-13T08:04:04;7.50;;;2.57;;
11006;SDS011;8186;57.652;11.968;2023-07-13T08:06:31;8.17;;;2.50;;
11006;SDS011;8186;57.652;11.968;2023-07-13T08:08:58;6.13;;;2.37;;
11006;SDS011;8186;57.652;11.968;2023-07-13T08:11:25;9.07;;;2.43;;
11006;SDS011;8186;57.652;11.968;2023-07-13T08:13:52;3.97;;;1.97;;
11006;SDS011;8186;57.652;11.968;2023-07-13T08:16:19;7.33;;;2.77;;
11006;SDS011;8186;57.652;11.968;2023-07-13T08:18:48;4.47;;;1.80;;
11006;SDS011;8186;57.652;11.968;2023-07-13T08:21:15;6.00;;;2.00;;
11006;SDS011;8186;57.652;11.968;2023-07-13T08:23:45;3.77;;;2.07;;
11006;SDS011;8186;57.652;11.968;2023-07-13T08:26:12;8.27;;;2.27;;
11006;SDS011;8186;57.652;11.968;2023-07-13T08:28:39;8.03;;;2.40;;
11006;SDS011;8186;57.652;11.968;2023-07-13T08:31:07;4.23;;;1.70;;
11006;SDS011;8186;57.652;11.968;2023-07-13T08:33:34;4.47;;;1.63;;
11006;SDS011;8186;57.652;11.968;2023-07-13T08:36:03;8.27;;;2.40;;
11006;SDS011;8186;57.652;11.968;2023-07-13T08:38:30;3.73;;;1.70;;
11006;SDS011;8186;57.652;11.968;2023-07-13T08:40:57;5.70;;;1.70;;
11006;SDS011;8186;57.652;11.968;2023-07-13T08:43:25;7.03;;;2.83;;
11006;SDS011;8186;57.652;11.968;2023-07-13T08:45:54;5.20;;;1.90;;
11006;SDS011;8186;57.652;11.968;2023-07-13T08:48:26;3.33;;;1.90;;
11006;SDS011;8186;57.652;11.968;2023-07-13T08:50:56;9.57;;;2.27;;
11006;SDS011;8186;57.652;11.968;2023-07-13T08:53:27;6.07;;;2.10;;
11006;SDS011;8186;57.652;11.968;2023-07-13T08:55:59;5.07;;;2.13;;
11006;SDS011;8186;57.652;11.968;2023-07-13T08:58:27;6.13;;;2.10;;
11006;SDS011;8186;57.652;11.968;2023-07-13T09:00:56;6.07;;;2.30;;
11006;SDS011;8186;57.652;11.968;2023-07-13T09:03:27;4.93;;;1.97;;
11006;SDS011;8186;57.652;11.968;2023-07-13T09:05:57;5.13;;;2.50;;
11006;SDS011;8186;57.652;11.968;2023-07-13T09:08:38;5.10;;;2.30;;
11006;SDS011;8186;57.652;11.968;2023-07-13T09:11:16;5.07;;;2.37;;
11006;SDS011;8186;57.652;11.968;2023-07-13T09:13:53;6.23;;;2.30;;
11006;SDS011;8186;57.652;11.968;2023-07-13T09:16:25;9.10;;;2.50;;
11006;SDS011;8186;57.652;11.968;2023-07-13T09:18:52;4.00;;;2.10;;
11006;SDS011;8186;57.652;11.968;2023-07-13T09:21:23;6.63;;;2.50;;
11006;SDS011;8186;57.652;11.968;2023-07-13T09:23:56;6.47;;;2.50;;
11006;SDS011;8186;57.652;11.968;2023-07-13T09:26:41;5.30;;;1.90;;
11006;SDS011;8186;57.652;11.968;2023-07-13T09:29:10;3.92;;;1.95;;
11006;SDS011;8186;57.652;11.968;2023-07-13T09:31:41;7.33;;;2.60;;
11006;SDS011;8186;57.652;11.968;2023-07-13T09:34:10;4.03;;;1.67;;
11006;SDS011;8186;57.652;11.968;2023-07-13T09:36:38;4.60;;;2.13;;
11006;SDS011;8186;57.652;11.968;2023-07-13T09:39:09;5.82;;;2.00;;
11006;SDS011;8186;57.652;11.968;2023-07-13T09:41:41;5.45;;;2.13;;
11006;SDS011;8186;57.652;11.968;2023-07-13T09:44:13;8.68;;;2.80;;
11006;SDS011;8186;57.652;11.968;2023-07-13T09:46:43;5.47;;;2.10;;
11006;SDS011;8186;57.652;11.968;2023-07-13T09:49:12;10.52;;;2.38;;
11006;SDS011;8186;57.652;11.968;2023-07-13T09:51:40;8.23;;;2.20;;
11006;SDS011;8186;57.652;11.968;2023-07-13T09:54:18;7.75;;;2.30;;
11006;SDS011;8186;57.652;11.968;2023-07-13T09:56:46;6.35;;;2.15;;
11006;SDS011;8186;57.652;11.968;2023-07-13T09:59:19;7.88;;;2.20;;
11006;SDS011;8186;57.652;11.968;2023-07-13T10:01:46;6.15;;;1.92;;
11006;SDS011;8186;57.652;11.968;2023-07-13T10:04:14;7.03;;;2.80;;
11006;SDS011;8186;57.652;11.968;2023-07-13T10:06:44;8.63;;;2.80;;
11006;SDS011;8186;57.652;11.968;2023-07-13T10:09:14;8.13;;;3.10;;
11006;SDS011;8186;57.652;11.968;2023-07-13T10:11:43;6.18;;;2.38;;
11006;SDS011;8186;57.652;11.968;2023-07-13T10:14:11;10.93;;;2.25;;
11006;SDS011;8186;57.652;11.968;2023-07-13T10:16:41;7.43;;;3.10;;
11006;SDS011;8186;57.652;11.968;2023-07-13T10:19:11;12.55;;;3.00;;
11006;SDS011;8186;57.652;11.968;2023-07-13T10:21:43;6.55;;;2.30;;
11006;SDS011;8186;57.652;11.968;2023-07-13T10:24:14;7.03;;;2.65;;
11006;SDS011;8186;57.652;11.968;2023-07-13T10:26:46;6.65;;;1.92;;
11006;SDS011;8186;57.652;11.968;2023-07-13T10:29:15;7.00;;;2.33;;
11006;SDS011;8186;57.652;11.968;2023-07-13T10:31:44;6.38;;;2.42;;
11006;SDS011;8186;57.652;11.968;2023-07-13T10:34:11;6.63;;;2.20;;
11006;SDS011;8186;57.652;11.968;2023-07-13T10:36:40;9.23;;;2.50;;
11006;SDS011;8186;57.652;11.968;2023-07-13T10:39:10;6.75;;;2.22;;
11006;SDS011;8186;57.652;11.968;2023-07-13T10:41:43;5.53;;;2.10;;
11006;SDS011;8186;57.652;11.968;2023-07-13T10:44:16;8.65;;;2.40;;
11006;SDS011;8186;57.652;11.968;2023-07-13T10:46:46;8.90;;;2.40;;
11006;SDS011;8186;57.652;11.968;2023-07-13T10:49:14;7.35;;;2.13;;
11006;SDS011;8186;57.652;11.968;2023-07-13T10:51:43;7.35;;;2.35;;
11006;SDS011;8186;57.652;11.968;2023-07-13T10:54:15;5.65;;;2.22;;
11006;SDS011;8186;57.652;11.968;2023-07-13T10:56:52;9.05;;;2.60;;
11006;SDS011;8186;57.652;11.968;2023-07-13T10:59:32;8.80;;;2.38;;
11006;SDS011;8186;57.652;11.968;2023-07-13T11:02:06;3.78;;;2.00;;
11006;SDS011;8186;57.652;11.968;2023-07-13T11:04:40;9.20;;;2.72;;
11006;SDS011;8186;57.652;11.968;2023-07-13T11:07:10;5.35;;;2.17;;
11006;SDS011;8186;57.652;11.968;2023-07-13T11:09:43;4.32;;;2.22;;
11006;SDS011;8186;57.652;11.968;2023-07-13T11:12:27;4.90;;;2.42;;
11006;SDS011;8186;57.652;11.968;2023-07-13T11:15:26;5.30;;;2.28;;
11006;SDS011;8186;57.652;11.968;2023-07-13T11:17:54;5.78;;;2.05;;
11006;SDS011;8186;57.652;11.968;2023-07-13T11:23:26;7.03;;;1.90;;
11006;SDS011;8186;57.652;11.968;2023-07-13T11:25:55;4.78;;;2.08;;
11006;SDS011;8186;57.652;11.968;2023-07-13T11:28:24;8.70;;;1.80;;
11006;SDS011;8186;57.652;11.968;2023-07-13T11:31:02;7.60;;;1.98;;
11006;SDS011;8186;57.652;11.968;2023-07-13T11:33:45;2.75;;;1.38;;
11006;SDS011;8186;57.652;11.968;2023-07-13T11:36:18;2.42;;;1.40;;
11006;SDS011;8186;57.652;11.968;2023-07-13T11:38:49;4.53;;;1.95;;
11006;SDS011;8186;57.652;11.968;2023-07-13T11:41:23;5.93;;;1.65;;
11006;SDS011;8186;57.652;11.968;2023-07-13T11:43:55;4.40;;;2.22;;
11006;SDS011;8186;57.652;11.968;2023-07-13T11:46:29;4.13;;;2.05;;
11006;SDS011;8186;57.652;11.968;2023-07-13T11:48:56;7.15;;;2.10;;
11006;SDS011;8186;57.652;11.968;2023-07-13T11:51:23;6.38;;;1.70;;
11006;SDS011;8186;57.652;11.968;2023-07-13T11:53:52;6.55;;;1.92;;
11006;SDS011;8186;57.652;11.968;2023-07-13T11:56:20;5.85;;;2.40;;
11006;SDS011;8186;57.652;11.968;2023-07-13T11:58:48;6.75;;;2.17;;
11006;SDS011;8186;57.652;11.968;2023-07-13T12:01:18;6.28;;;2.33;;
11006;SDS011;8186;57.652;11.968;2023-07-13T12:03:47;4.93;;;1.70;;
11006;SDS011;8186;57.652;11.968;2023-07-13T12:06:25;3.47;;;1.50;;
11006;SDS011;8186;57.652;11.968;2023-07-13T12:08:55;5.38;;;1.58;;
11006;SDS011;8186;57.652;11.968;2023-07-13T12:11:23;4.20;;;1.60;;
11006;SDS011;8186;57.652;11.968;2023-07-13T12:13:50;6.68;;;1.75;;
11006;SDS011;8186;57.652;11.968;2023-07-13T12:16:20;5.40;;;1.92;;
11006;SDS011;8186;57.652;11.968;2023-07-13T12:18:52;7.60;;;1.98;;
11006;SDS011;8186;57.652;11.968;2023-07-13T12:21:19;5.50;;;1.67;;
11006;SDS011;8186;57.652;11.968;2023-07-13T12:23:50;3.05;;;1.13;;
11006;SDS011;8186;57.652;11.968;2023-07-13T12:26:17;3.10;;;1.20;;
11006;SDS011;8186;57.652;11.968;2023-07-13T12:28:47;4.05;;;1.15;;
11006;SDS011;8186;57.652;11.968;2023-07-13T12:34:01;3.47;;;1.23;;
11006;SDS011;8186;57.652;11.968;2023-07-13T12:36:31;7.90;;;1.85;;
11006;SDS011;8186;57.652;11.968;2023-07-13T12:39:00;1.80;;;0.82;;
11006;SDS011;8186;57.652;11.968;2023-07-13T12:41:31;3.78;;;1.20;;
11006;SDS011;8186;57.652;11.968;2023-07-13T12:43:59;3.35;;;1.48;;
11006;SDS011;8186;57.652;11.968;2023-07-13T12:46:26;2.03;;;0.90;;
11006;SDS011;8186;57.652;11.968;2023-07-13T12:48:56;2.67;;;1.00;;
11006;SDS011;8186;57.652;11.968;2023-07-13T12:51:25;2.10;;;0.77;;
11006;SDS011;8186;57.652;11.968;2023-07-13T12:53:56;3.40;;;1.13;;
11006;SDS011;8186;57.652;11.968;2023-07-13T12:56:26;2.60;;;0.90;;
11006;SDS011;8186;57.652;11.968;2023-07-13T12:58:57;2.53;;;1.20;;
11006;SDS011;8186;57.652;11.968;2023-07-13T13:01:25;5.03;;;1.02;;
11006;SDS011;8186;57.652;11.968;2023-07-13T13:03:54;2.53;;;0.95;;
11006;SDS011;8186;57.652;11.968;2023-07-13T13:06:23;3.45;;;1.10;;
11006;SDS011;8186;57.652;11.968;2023-07-13T13:08:52;2.55;;;1.20;;
11006;SDS011;8186;57.652;11.968;2023-07-13T13:11:20;3.63;;;1.10;;
11006;SDS011;8186;57.652;11.968;2023-07-13T13:13:48;1.25;;;0.98;;
11006;SDS011;8186;57.652;11.968;2023-07-13T13:16:18;5.03;;;1.40;;
11006;SDS011;8186;57.652;11.968;2023-07-13T13:18:46;3.35;;;1.40;;
11006;SDS011;8186;57.652;11.968;2023-07-13T13:21:15;4.55;;;1.52;;
11006;SDS011;8186;57.652;11.968;2023-07-13T13:23:42;4.00;;;1.30;;
11006;SDS011;8186;57.652;11.968;2023-07-13T13:26:10;7.15;;;1.48;;
11006;SDS011;8186;57.652;11.968;2023-07-13T13:28:38;3.10;;;1.10;;
11006;SDS011;8186;57.652;11.968;2023-07-13T13:31:05;3.30;;;1.20;;
11006;SDS011;8186;57.652;11.968;2023-07-13T13:33:32;5.90;;;1.20;;
11006;SDS011;8186;57.652;11.968;2023-07-13T13:35:59;2.50;;;1.30;;
11006;SDS011;8186;57.652;11.968;2023-07-13T13:38:27;3.38;;;1.60;;
11006;SDS011;8186;57.652;11.968;2023-07-13T13:40:54;3.80;;;1.15;;
11006;SDS011;8186;57.652;11.968;2023-07-13T13:43:21;2.58;;;1.00;;
11006;SDS011;8186;57.652;11.968;2023-07-13T13:45:51;4.72;;;1.00;;
11006;SDS011;8186;57.652;11.968;2023-07-13T13:48:19;1.58;;;1.00;;
11006;SDS011;8186;57.652;11.968;2023-07-13T13:50:52;3.58;;;1.10;;
11006;SDS011;8186;57.652;11.968;2023-07-13T13:53:19;2.15;;;1.00;;
11006;SDS011;8186;57.652;11.968;2023-07-13T13:55:48;2.60;;;1.00;;
11006;SDS011;8186;57.652;11.968;2023-07-13T13:58:17;4.35;;;1.30;;
11006;SDS011;8186;57.652;11.968;2023-07-13T14:00:44;2.25;;;0.93;;
11006;SDS011;8186;57.652;11.968;2023-07-13T14:03:13;3.03;;;1.05;;
11006;SDS011;8186;57.652;11.968;2023-07-13T14:05:41;2.25;;;1.27;;
11006;SDS011;8186;57.652;11.968;2023-07-13T14:08:09;2.13;;;1.00;;
11006;SDS011;8186;57.652;11.968;2023-07-13T14:10:39;2.10;;;1.00;;
11006;SDS011;8186;57.652;11.968;2023-07-13T14:13:08;3.03;;;1.38;;
11006;SDS011;8186;57.652;11.968;2023-07-13T14:15:43;5.50;;;1.30;;
11006;SDS011;8186;57.652;11.968;2023-07-13T14:18:10;4.07;;;1.67;;
11006;SDS011;8186;57.652;11.968;2023-07-13T14:20:37;4.78;;;1.50;;
11006;SDS011;8186;57.652;11.968;2023-07-13T14:23:04;4.22;;;1.80;;
11006;SDS011;8186;57.652;11.968;2023-07-13T14:25:30;4.00;;;1.25;;
11006;SDS011;8186;57.652;11.968;2023-07-13T14:27:58;2.72;;;1.40;;
11006;SDS011;8186;57.652;11.968;2023-07-13T14:30:27;3.65;;;1.48;;
11006;SDS011;8186;57.652;11.968;2023-07-13T14:32:54;2.92;;;0.98;;
11006;SDS011;8186;57.652;11.968;2023-07-13T14:35:21;3.55;;;1.10;;
11006;SDS011;8186;57.652;11.968;2023-07-13T14:37:49;2.33;;;1.23;;
11006;SDS011;8186;57.652;11.968;2023-07-13T14:40:17;3.70;;;1.10;;
11006;SDS011;8186;57.652;11.968;2023-07-13T14:42:47;2.00;;;1.10;;
11006;SDS011;8186;57.652;11.968;2023-07-13T14:45:15;2.63;;;1.10;;
11006;SDS011;8186;57.652;11.968;2023-07-13T14:47:44;1.95;;;1.20;;
11006;SDS011;8186;57.652;11.968;2023-07-13T14:50:13;4.43;;;1.15;;
11006;SDS011;8186;57.652;11.968;2023-07-13T14:52:41;2.30;;;1.10;;
11006;SDS011;8186;57.652;11.968;2023-07-13T14:55:09;2.35;;;1.00;;
11006;SDS011;8186;57.652;11.968;2023-07-13T14:57:37;4.20;;;1.42;;
11006;SDS011;8186;57.652;11.968;2023-07-13T15:00:04;3.55;;;1.25;;